createdAt,value
2018-12-02T00:00:59.259Z,3.33
2018-12-02T00:03:29.052Z,3.35
2018-12-02T00:05:59.002Z,2.70
2018-12-02T00:08:28.942Z,2.25
2018-12-02T00:10:58.796Z,1.60
2018-12-02T00:13:28.640Z,3.57
2018-12-02T00:15:58.633Z,3.60
2018-12-02T00:18:28.517Z,1.85
2018-12-02T00:20:58.371Z,3.80
2018-12-02T00:23:28.062Z,3.00
2018-12-02T00:25:57.816Z,2.50
2018-12-02T00:28:27.642Z,1.97
2018-12-02T00:30:57.465Z,2.97
2018-12-02T00:33:27.259Z,2.63
2018-12-02T00:35:57.614Z,2.85
2018-12-02T00:38:27.430Z,2.90
2018-12-02T00:40:57.326Z,3.27
2018-12-02T00:43:27.146Z,2.77
2018-12-02T00:45:57.031Z,2.10
2018-12-02T00:48:26.843Z,2.50
2018-12-02T00:50:56.644Z,1.50
2018-12-02T00:53:26.531Z,1.93
2018-12-02T00:56:00.863Z,1.97
2018-12-02T00:58:30.765Z,2.03
2018-12-02T01:01:00.621Z,2.07
2018-12-02T01:03:30.583Z,2.40
2018-12-02T01:06:00.451Z,3.53
2018-12-02T01:08:30.263Z,2.72
2018-12-02T01:11:00.123Z,2.60
2018-12-02T01:13:29.806Z,2.50
2018-12-02T01:15:59.608Z,3.07
2018-12-02T01:18:29.533Z,5.20
2018-12-02T01:20:59.158Z,7.22
2018-12-02T01:23:29.116Z,1.47
2018-12-02T01:25:58.978Z,1.73
2018-12-02T01:28:28.625Z,2.23
2018-12-02T01:30:58.335Z,1.72
2018-12-02T01:33:29.072Z,1.36
2018-12-02T01:35:58.841Z,1.27
2018-12-02T01:38:28.577Z,2.03
2018-12-02T01:40:58.242Z,1.77
2018-12-02T01:43:28.001Z,3.00
2018-12-02T01:45:57.781Z,1.53
2018-12-02T01:48:27.539Z,2.07
2018-12-02T01:50:57.356Z,2.37
2018-12-02T01:53:27.278Z,2.70
2018-12-02T01:55:57.265Z,1.13
2018-12-02T01:58:26.968Z,1.27
2018-12-02T02:00:56.864Z,3.50
2018-12-02T02:03:26.617Z,1.82
2018-12-02T02:05:56.335Z,1.37
2018-12-02T02:08:26.280Z,3.10
2018-12-02T02:10:55.915Z,1.47
2018-12-02T02:13:25.631Z,1.27
2018-12-02T02:15:55.340Z,2.73
2018-12-02T02:18:25.164Z,2.52
2018-12-02T02:20:54.992Z,2.20
2018-12-02T02:23:24.590Z,1.63
2018-12-02T02:25:54.280Z,1.67
2018-12-02T02:28:25.079Z,2.10
2018-12-02T02:30:55.873Z,1.53
2018-12-02T02:33:25.484Z,1.10
2018-12-02T02:35:55.071Z,1.23
2018-12-02T02:38:24.795Z,1.57
2018-12-02T02:40:54.382Z,1.73
2018-12-02T02:43:24.003Z,1.47
2018-12-02T02:45:53.717Z,0.93
2018-12-02T02:48:23.501Z,1.70
2018-12-02T02:50:53.072Z,1.83
2018-12-02T02:53:22.823Z,1.40
2018-12-02T02:55:52.715Z,2.55
2018-12-02T02:58:22.436Z,1.73
2018-12-02T03:00:52.179Z,1.07
2018-12-02T03:03:21.791Z,1.13
2018-12-02T03:05:51.797Z,0.90
2018-12-02T03:08:21.648Z,0.72
2018-12-02T03:10:51.347Z,2.67
2018-12-02T03:13:21.085Z,0.90
2018-12-02T03:15:51.010Z,0.93
2018-12-02T03:18:20.784Z,0.80
2018-12-02T03:20:50.967Z,0.80
2018-12-02T03:23:21.697Z,1.60
2018-12-02T03:25:51.320Z,0.77
2018-12-02T03:28:21.014Z,1.03
2018-12-02T03:30:50.875Z,0.80
2018-12-02T03:33:20.566Z,0.80
2018-12-02T03:35:50.736Z,0.87
2018-12-02T03:38:20.606Z,0.80
2018-12-02T03:40:50.310Z,0.67
2018-12-02T03:43:20.040Z,0.80
2018-12-02T03:45:49.673Z,0.93
2018-12-02T03:48:19.327Z,1.02
2018-12-02T03:50:48.988Z,0.70
2018-12-02T03:53:18.810Z,0.62
2018-12-02T03:55:48.670Z,0.70
2018-12-02T03:58:18.371Z,1.00
2018-12-02T04:00:48.137Z,0.70
2018-12-02T04:03:17.912Z,1.00
2018-12-02T04:05:47.566Z,0.57
2018-12-02T04:08:17.278Z,4.50
2018-12-02T04:10:47.116Z,0.73
2018-12-02T04:13:17.006Z,1.60
2018-12-02T04:15:46.916Z,0.57
2018-12-02T04:18:16.505Z,0.83
2018-12-02T04:20:46.438Z,1.72
2018-12-02T04:23:16.381Z,1.00
2018-12-02T04:25:46.377Z,1.37
2018-12-02T04:28:15.963Z,0.65
2018-12-02T04:30:45.691Z,0.70
2018-12-02T04:33:15.272Z,0.70
2018-12-02T04:35:45.036Z,0.75
2018-12-02T04:38:14.761Z,1.10
2018-12-02T04:40:44.449Z,0.72
2018-12-02T04:43:14.007Z,1.43
2018-12-02T04:45:43.823Z,0.80
2018-12-02T04:48:13.411Z,0.67
2018-12-02T04:50:43.103Z,1.25
2018-12-02T04:53:12.653Z,0.97
2018-12-02T04:55:42.221Z,1.10
2018-12-02T04:58:11.917Z,0.60
2018-12-02T05:00:41.606Z,2.03
2018-12-02T05:03:11.465Z,1.00
2018-12-02T05:05:42.147Z,1.12
2018-12-02T05:08:13.024Z,0.67
2018-12-02T05:10:42.668Z,0.90
2018-12-02T05:13:12.439Z,3.23
2018-12-02T05:15:42.104Z,0.83
2018-12-02T05:18:11.850Z,1.60
2018-12-02T05:20:41.407Z,2.00
2018-12-02T05:23:10.968Z,0.67
2018-12-02T05:25:40.673Z,0.50
2018-12-02T05:28:10.198Z,0.65
2018-12-02T05:30:39.940Z,1.75
2018-12-02T05:33:09.539Z,0.70
2018-12-02T05:35:39.056Z,0.60
2018-12-02T05:38:08.702Z,2.30
2018-12-02T05:40:38.512Z,1.24
2018-12-02T05:43:08.253Z,0.50
2018-12-02T05:45:37.911Z,1.60
2018-12-02T05:48:07.631Z,0.70
2018-12-02T05:50:38.384Z,0.50
2018-12-02T05:53:08.066Z,0.60
2018-12-02T05:55:38.528Z,0.57
2018-12-02T05:58:08.531Z,0.60
2018-12-02T06:00:38.446Z,1.53
2018-12-02T06:03:08.487Z,0.67
2018-12-02T06:05:38.334Z,0.50
2018-12-02T06:08:08.444Z,1.43
2018-12-02T06:10:38.003Z,0.40
2018-12-02T06:13:07.987Z,0.42
2018-12-02T06:15:37.797Z,0.50
2018-12-02T06:18:07.593Z,0.50
2018-12-02T06:20:37.267Z,0.50
2018-12-02T06:23:07.757Z,0.87
2018-12-02T06:25:37.649Z,0.40
2018-12-02T06:28:07.363Z,0.50
2018-12-02T06:30:37.078Z,0.40
2018-12-02T06:33:07.523Z,0.55
2018-12-02T06:35:37.347Z,0.70
2018-12-02T06:38:08.181Z,0.37
2018-12-02T06:40:37.929Z,0.37
2018-12-02T06:43:07.693Z,0.60
2018-12-02T06:45:37.281Z,0.50
2018-12-02T06:48:07.589Z,0.50
2018-12-02T06:50:37.883Z,0.60
2018-12-02T06:53:07.941Z,0.50
2018-12-02T06:55:46.333Z,0.40
2018-12-02T07:00:32.933Z,0.97
2018-12-02T07:04:20.427Z,0.55
2018-12-02T07:06:50.129Z,0.70
2018-12-02T07:09:19.819Z,0.67
2018-12-02T07:11:49.747Z,0.67
2018-12-02T07:14:19.443Z,2.77
2018-12-02T07:16:49.144Z,0.68
2018-12-02T07:19:24.067Z,0.80
2018-12-02T07:22:04.328Z,0.70
2018-12-02T07:24:39.478Z,0.88
2018-12-02T07:27:10.844Z,0.57
2018-12-02T07:29:40.484Z,0.62
2018-12-02T07:32:10.404Z,0.60
2018-12-02T07:34:40.087Z,0.55
2018-12-02T07:37:16.335Z,0.70
2018-12-02T07:40:12.794Z,0.80
2018-12-02T07:42:42.589Z,1.60
2018-12-02T07:45:12.628Z,2.80
2018-12-02T07:47:42.374Z,0.80
2018-12-02T07:50:12.224Z,0.60
2018-12-02T07:52:41.977Z,0.70
2018-12-02T07:55:11.868Z,0.55
2018-12-02T07:57:42.283Z,1.75
2018-12-02T08:00:14.357Z,0.67
2018-12-02T08:02:44.679Z,0.98
2018-12-02T08:05:16.211Z,0.73
2018-12-02T08:07:48.937Z,0.50
2018-12-02T08:10:19.714Z,0.50
2018-12-02T08:12:49.567Z,1.60
2018-12-02T08:15:20.878Z,0.50
2018-12-02T08:17:50.797Z,3.70
2018-12-02T08:20:20.628Z,0.93
2018-12-02T08:22:51.502Z,1.17
2018-12-02T08:25:20.903Z,0.73
2018-12-02T08:27:50.842Z,1.70
2018-12-02T08:30:25.193Z,1.23
2018-12-02T08:32:56.153Z,0.70
2018-12-02T08:35:28.567Z,0.60
2018-12-02T08:38:03.703Z,1.47
2018-12-02T08:40:34.269Z,1.30
2018-12-02T08:43:04.281Z,0.60
2018-12-02T08:45:34.162Z,4.33
2018-12-02T08:48:04.021Z,0.93
2018-12-02T08:50:33.936Z,0.60
2018-12-02T08:53:03.891Z,1.30
2018-12-02T08:55:33.714Z,0.70
2018-12-02T08:58:03.612Z,3.65
2018-12-02T09:00:33.697Z,0.90
2018-12-02T09:03:06.877Z,0.97
2018-12-02T09:05:36.836Z,2.73
2018-12-02T09:08:08.142Z,1.03
2018-12-02T09:10:38.164Z,0.73
2018-12-02T09:13:10.145Z,2.67
2018-12-02T09:15:39.979Z,1.17
2018-12-02T09:18:11.643Z,0.88
2018-12-02T09:20:41.417Z,0.70
2018-12-02T09:23:13.132Z,1.00
2018-12-02T09:25:42.539Z,0.77
2018-12-02T09:28:12.560Z,1.27
2018-12-02T09:30:42.624Z,0.60
2018-12-02T09:33:12.569Z,0.80
2018-12-02T09:35:42.610Z,1.10
2018-12-02T09:38:12.760Z,2.97
2018-12-02T09:40:42.817Z,0.93
2018-12-02T09:43:12.803Z,1.50
2018-12-02T09:45:42.754Z,1.13
2018-12-02T09:48:12.903Z,1.12
2018-12-02T09:50:43.067Z,0.80
2018-12-02T09:53:12.867Z,2.20
2018-12-02T09:55:48.007Z,2.50
2018-12-02T09:58:27.289Z,2.13
2018-12-02T10:00:59.972Z,1.30
2018-12-02T10:03:30.182Z,2.13
2018-12-02T10:06:00.144Z,1.23
2018-12-02T10:08:30.050Z,1.30
2018-12-02T10:11:00.715Z,1.73
2018-12-02T10:13:30.571Z,1.23
2018-12-02T10:16:00.278Z,2.50
2018-12-02T10:18:30.616Z,1.92
2018-12-02T10:21:00.427Z,1.10
2018-12-02T10:23:30.480Z,3.47
2018-12-02T10:26:00.404Z,1.13
2018-12-02T10:28:30.238Z,1.13
2018-12-02T10:30:59.962Z,0.83
2018-12-02T10:33:30.543Z,1.20
2018-12-02T10:36:01.334Z,1.67
2018-12-02T10:38:31.275Z,1.67
2018-12-02T10:41:01.341Z,2.50
2018-12-02T10:43:31.225Z,1.63
2018-12-02T10:46:01.032Z,1.40
2018-12-02T10:48:31.089Z,1.80
2018-12-02T10:51:01.044Z,2.07
2018-12-02T10:53:31.158Z,2.23
2018-12-02T10:56:01.686Z,2.23
2018-12-02T10:58:34.803Z,2.13
2018-12-02T11:01:10.950Z,3.60
2018-12-02T11:03:40.873Z,2.23
2018-12-02T11:06:10.952Z,2.33
2018-12-02T11:08:40.744Z,2.20
2018-12-02T11:11:11.073Z,2.50
2018-12-02T11:13:41.498Z,2.30
2018-12-02T11:16:11.472Z,4.93
2018-12-02T11:18:41.554Z,3.40
2018-12-02T11:21:11.607Z,3.33
2018-12-02T11:23:41.766Z,3.65
2018-12-02T11:26:11.718Z,3.97
2018-12-02T11:28:41.566Z,4.08
2018-12-02T11:31:11.532Z,4.23
2018-12-02T11:33:41.697Z,4.33
2018-12-02T11:36:11.610Z,5.03
2018-12-02T11:38:41.577Z,7.50
2018-12-02T11:41:11.793Z,4.22
2018-12-02T11:43:41.771Z,5.27
2018-12-02T11:46:11.982Z,4.47
2018-12-02T11:48:41.976Z,6.40
2018-12-02T11:51:12.038Z,3.77
2018-12-02T11:53:42.012Z,3.90
2018-12-02T11:56:11.932Z,6.50
2018-12-02T11:58:41.813Z,4.67
2018-12-02T12:01:11.782Z,4.00
2018-12-02T12:03:41.499Z,3.73
2018-12-02T12:06:11.478Z,4.77
2018-12-02T12:08:41.771Z,3.77
2018-12-02T12:11:11.696Z,4.17
2018-12-02T12:13:41.767Z,4.33
2018-12-02T12:16:11.805Z,6.37
2018-12-02T12:18:41.738Z,4.40
2018-12-02T12:21:11.722Z,4.23
2018-12-02T12:23:41.561Z,4.92
2018-12-02T12:26:11.336Z,4.15
2018-12-02T12:28:41.333Z,4.97
2018-12-02T12:31:11.326Z,5.70
2018-12-02T12:33:41.305Z,11.47
2018-12-02T12:36:11.589Z,6.10
2018-12-02T12:38:41.489Z,6.83
2018-12-02T12:41:11.378Z,7.17
2018-12-02T12:43:42.337Z,9.83
2018-12-02T12:46:12.466Z,7.40
2018-12-02T12:48:42.637Z,7.53
2018-12-02T12:51:12.670Z,8.13
2018-12-02T12:53:42.698Z,8.63
2018-12-02T12:56:12.529Z,8.40
2018-12-02T12:58:42.433Z,8.13
2018-12-02T13:01:12.482Z,8.23
2018-12-02T13:03:43.059Z,7.92
2018-12-02T13:06:13.899Z,12.86
2018-12-02T13:08:43.768Z,9.17
2018-12-02T13:11:13.803Z,9.80
2018-12-02T13:13:43.819Z,9.40
2018-12-02T13:16:13.754Z,10.43
2018-12-02T13:18:43.603Z,10.20
2018-12-02T13:21:13.444Z,9.57
2018-12-02T13:23:43.654Z,9.53
2018-12-02T13:26:13.665Z,9.93
2018-12-02T13:28:43.707Z,11.30
2018-12-02T13:31:13.946Z,9.15
2018-12-02T13:33:44.058Z,9.65
2018-12-02T13:36:14.084Z,9.20
2018-12-02T13:38:44.267Z,8.73
2018-12-02T13:41:14.288Z,10.57
2018-12-02T13:43:44.229Z,8.85
2018-12-02T13:46:14.237Z,8.23
2018-12-02T13:48:44.133Z,9.25
2018-12-02T13:51:14.154Z,6.77
2018-12-02T13:53:49.297Z,7.73
2018-12-02T13:56:22.958Z,7.22
2018-12-02T13:58:49.533Z,6.30
2018-12-02T14:01:19.503Z,6.30
2018-12-02T14:03:49.562Z,4.87
2018-12-02T14:06:19.791Z,4.47
2018-12-02T14:08:49.989Z,4.60
2018-12-02T14:11:20.228Z,4.43
2018-12-02T14:13:51.114Z,4.30
2018-12-02T14:16:37.254Z,2.60
2018-12-02T14:19:13.929Z,3.37
2018-12-02T14:21:43.952Z,3.73
2018-12-02T14:24:15.098Z,2.33
2018-12-02T14:26:45.971Z,3.00
2018-12-02T14:29:21.501Z,2.70
2018-12-02T14:31:56.991Z,3.53
2018-12-02T14:34:27.290Z,5.20
2018-12-02T14:36:58.152Z,4.13
2018-12-02T14:39:28.302Z,3.57
2018-12-02T14:41:58.374Z,4.13
2018-12-02T14:44:28.373Z,5.37
2018-12-02T14:46:58.672Z,4.77
2018-12-02T14:49:28.780Z,4.70
2018-12-02T14:51:58.674Z,5.47
2018-12-02T14:54:28.927Z,6.63
2018-12-02T14:56:58.961Z,5.80
2018-12-02T14:59:29.015Z,6.60
2018-12-02T15:01:58.894Z,6.30
2018-12-02T15:04:28.957Z,7.43
2018-12-02T15:06:59.032Z,8.80
2018-12-02T15:09:29.043Z,7.40
2018-12-02T15:12:00.176Z,6.92
2018-12-02T15:14:30.281Z,7.27
2018-12-02T15:17:00.408Z,7.70
2018-12-02T15:19:30.637Z,7.33
2018-12-02T15:22:00.808Z,8.50
2018-12-02T15:24:30.856Z,8.40
2018-12-02T15:27:00.948Z,8.60
2018-12-02T15:29:32.203Z,6.30
2018-12-02T15:32:03.349Z,11.20
2018-12-02T15:34:34.486Z,7.42
2018-12-02T15:37:05.160Z,6.67
2018-12-02T15:39:35.327Z,8.43
2018-12-02T15:42:05.324Z,6.07
2018-12-02T15:44:35.561Z,12.97
2018-12-02T15:47:06.133Z,7.03
2018-12-02T15:49:36.693Z,7.08
2018-12-02T15:52:07.706Z,6.10
2018-12-02T15:54:39.226Z,7.20
2018-12-02T15:57:10.292Z,5.85
2018-12-02T15:59:41.162Z,6.87
2018-12-02T16:07:08.416Z,6.60
2018-12-02T16:09:38.377Z,10.27
2018-12-02T16:12:08.326Z,8.43
2018-12-02T16:14:38.297Z,10.43
2018-12-02T16:17:09.440Z,10.30
2018-12-02T16:19:39.524Z,10.57
2018-12-02T16:22:09.946Z,10.13
2018-12-02T16:24:40.404Z,7.47
2018-12-02T16:27:10.890Z,7.85
2018-12-02T16:29:40.929Z,11.17
2018-12-02T16:32:11.264Z,7.53
2018-12-02T16:34:41.411Z,16.67
2018-12-02T16:37:11.826Z,8.03
2018-12-02T16:39:41.820Z,8.73
2018-12-02T16:42:13.199Z,10.40
2018-12-02T16:44:43.264Z,9.60
2018-12-02T16:47:13.360Z,7.75
2018-12-02T16:49:43.796Z,5.25
2018-12-02T16:52:13.889Z,5.27
2018-12-02T16:54:43.929Z,5.45
2018-12-02T16:57:15.555Z,5.47
2018-12-02T16:59:45.442Z,7.05
2018-12-02T17:02:15.666Z,6.27
2018-12-02T17:04:45.581Z,7.13
2018-12-02T17:07:15.551Z,6.97
2018-12-02T17:09:46.168Z,7.27
2018-12-02T17:12:17.032Z,7.55
2018-12-02T17:14:47.022Z,6.87
2018-12-02T17:17:17.139Z,6.30
2018-12-02T17:19:47.218Z,7.17
2018-12-02T17:22:17.494Z,5.57
2018-12-02T17:24:47.793Z,7.30
2018-12-02T17:27:18.099Z,6.33
2018-12-02T17:29:48.341Z,6.37
2018-12-02T17:32:18.692Z,7.07
2018-12-02T17:34:48.901Z,5.87
2018-12-02T17:37:19.246Z,6.85
2018-12-02T17:39:53.477Z,5.70
2018-12-02T17:42:24.670Z,5.60
2018-12-02T17:44:54.891Z,6.08
2018-12-02T17:47:25.154Z,4.58
2018-12-02T17:49:55.905Z,4.27
2018-12-02T17:52:26.480Z,5.33
2018-12-02T17:54:56.498Z,5.23
2018-12-02T17:57:26.712Z,6.30
2018-12-02T17:59:57.591Z,4.67
2018-12-02T18:02:29.143Z,5.45
2018-12-02T18:05:00.013Z,7.25
2018-12-02T18:07:30.678Z,4.87
2018-12-02T18:10:00.827Z,5.20
2018-12-02T18:12:31.897Z,5.53
2018-12-02T18:15:02.115Z,5.33
2018-12-02T18:17:33.144Z,7.23
2018-12-02T18:20:03.672Z,4.50
2018-12-02T18:22:33.867Z,5.57
2018-12-02T18:25:03.973Z,6.73
2018-12-02T18:27:34.042Z,4.03
2018-12-02T18:30:04.747Z,5.23
2018-12-02T18:32:36.742Z,4.50
2018-12-02T18:35:13.058Z,4.67
2018-12-02T18:37:43.432Z,5.08
2018-12-02T18:40:13.562Z,6.17
2018-12-02T18:42:43.857Z,5.33
2018-12-02T18:45:14.027Z,4.57
2018-12-02T18:47:44.652Z,6.10
2018-12-02T18:50:15.023Z,4.40
2018-12-02T18:52:46.318Z,7.00
2018-12-02T18:55:16.617Z,5.98
2018-12-02T18:57:46.856Z,5.13
2018-12-02T19:00:22.925Z,4.97
2018-12-02T19:02:55.487Z,4.57
2018-12-02T19:05:25.682Z,6.00
2018-12-02T19:07:56.048Z,4.00
2018-12-02T19:10:28.845Z,5.60
2018-12-02T19:12:59.105Z,5.43
2018-12-02T19:15:29.568Z,5.25
2018-12-02T19:17:59.859Z,5.00
2018-12-02T19:20:31.479Z,4.00
2018-12-02T19:23:04.455Z,4.33
2018-12-02T19:25:35.049Z,3.53
2018-12-02T19:28:05.035Z,4.78
2018-12-02T19:30:35.393Z,5.72
2018-12-02T19:33:06.598Z,3.93
2018-12-02T19:35:37.805Z,3.47
2018-12-02T19:38:19.457Z,4.58
2018-12-02T19:40:49.636Z,2.80
2018-12-02T19:43:20.063Z,6.30
2018-12-02T19:45:52.892Z,4.60
2018-12-02T19:48:23.163Z,2.55
2018-12-02T19:50:53.704Z,3.75
2018-12-02T19:53:23.979Z,4.92
2018-12-02T19:55:54.367Z,3.70
2018-12-02T19:58:24.853Z,4.25
2018-12-02T20:00:55.066Z,3.15
2018-12-02T20:03:25.486Z,3.63
2018-12-02T20:05:55.890Z,4.03
2018-12-02T20:08:26.059Z,2.63
2018-12-02T20:10:56.487Z,6.60
2018-12-02T20:13:26.928Z,3.37
2018-12-02T20:16:02.142Z,6.77
2018-12-02T20:18:32.342Z,4.00
2018-12-02T20:21:03.010Z,6.60
2018-12-02T20:23:38.011Z,5.47
2018-12-02T20:26:08.296Z,4.90
2018-12-02T20:28:45.764Z,5.73
2018-12-02T20:31:19.832Z,5.65
2018-12-02T20:33:50.263Z,4.13
2018-12-02T20:36:20.959Z,6.67
2018-12-02T20:38:50.984Z,4.00
2018-12-02T20:41:21.104Z,3.00
2018-12-02T20:43:51.385Z,5.17
2018-12-02T20:46:21.534Z,5.67
2018-12-02T20:48:51.627Z,6.87
2018-12-02T20:51:21.682Z,3.33
2018-12-02T20:53:51.904Z,3.87
2018-12-02T20:56:22.116Z,3.40
2018-12-02T20:58:52.135Z,4.47
2018-12-02T21:01:22.059Z,3.97
2018-12-02T21:03:52.182Z,5.53
2018-12-02T21:06:23.149Z,4.43
2018-12-02T21:08:53.231Z,3.67
2018-12-02T21:11:23.156Z,2.67
2018-12-02T21:13:53.200Z,2.87
2018-12-02T21:16:24.525Z,4.17
2018-12-02T21:18:55.615Z,6.45
2018-12-02T21:21:27.359Z,4.72
2018-12-02T21:23:58.340Z,4.40
2018-12-02T21:26:28.826Z,4.80
2018-12-02T21:28:58.819Z,5.17
2018-12-02T21:31:28.832Z,10.30
2018-12-02T21:33:58.905Z,5.70
2018-12-02T21:36:28.947Z,5.17
2018-12-02T21:38:58.895Z,4.17
2018-12-02T21:41:28.942Z,6.37
2018-12-02T21:43:58.830Z,3.67
2018-12-02T21:46:28.845Z,5.60
2018-12-02T21:48:58.819Z,4.67
2018-12-02T21:51:28.980Z,5.70
2018-12-02T21:53:58.854Z,7.53
2018-12-02T21:56:28.720Z,5.53
2018-12-02T21:58:58.741Z,5.87
2018-12-02T22:01:28.798Z,2.90
2018-12-02T22:03:58.815Z,4.67
2018-12-02T22:06:28.986Z,5.23
2018-12-02T22:08:58.908Z,6.70
2018-12-02T22:11:28.755Z,4.97
2018-12-02T22:13:58.682Z,5.07
2018-12-02T22:16:28.967Z,8.65
2018-12-02T22:18:58.831Z,5.77
2018-12-02T22:21:28.843Z,7.53
2018-12-02T22:24:01.263Z,6.53
2018-12-02T22:26:28.673Z,8.13
2018-12-02T22:28:58.489Z,4.90
2018-12-02T22:31:29.192Z,7.15
2018-12-02T22:34:00.346Z,7.97
2018-12-02T22:36:30.174Z,5.10
2018-12-02T22:39:00.331Z,5.53
2018-12-02T22:41:30.187Z,5.27
2018-12-02T22:44:00.173Z,5.37
2018-12-02T22:46:30.194Z,6.97
2018-12-02T22:49:00.045Z,5.60
2018-12-02T22:51:30.085Z,5.30
2018-12-02T22:53:59.880Z,5.70
2018-12-02T22:56:29.758Z,6.63
2018-12-02T22:58:59.925Z,7.67
2018-12-02T23:01:35.270Z,5.90
2018-12-02T23:04:05.555Z,7.10
2018-12-02T23:06:35.594Z,7.13
2018-12-02T23:09:07.919Z,4.58
2018-12-02T23:11:37.832Z,4.53
2018-12-02T23:14:07.815Z,5.67
2018-12-02T23:16:37.850Z,4.13
2018-12-02T23:19:08.174Z,5.42
2018-12-02T23:21:38.032Z,10.67
2018-12-02T23:24:07.839Z,4.47
2018-12-02T23:26:37.683Z,12.53
2018-12-02T23:29:08.559Z,5.77
2018-12-02T23:31:37.727Z,4.00
2018-12-02T23:34:08.055Z,5.73
2018-12-02T23:36:37.906Z,4.92
2018-12-02T23:39:09.364Z,5.63
2018-12-02T23:41:39.155Z,4.40
2018-12-02T23:44:09.031Z,4.53
2018-12-02T23:46:38.884Z,4.53
2018-12-02T23:49:08.796Z,4.80
2018-12-02T23:51:38.634Z,6.10
2018-12-02T23:54:08.593Z,4.97
2018-12-02T23:56:38.510Z,5.25
2018-12-02T23:59:08.362Z,6.40
